createdAt,value
2018-05-24T00:01:42.159Z,48.60
2018-05-24T00:04:16.466Z,49.20
2018-05-24T00:06:51.480Z,49.40
2018-05-24T00:09:25.973Z,49.30
2018-05-24T00:12:00.251Z,49.60
2018-05-24T00:14:34.756Z,49.50
2018-05-24T00:17:09.896Z,48.90
2018-05-24T00:19:44.308Z,48.90
2018-05-24T00:22:18.838Z,49.10
2018-05-24T00:24:53.158Z,48.90
2018-05-24T00:27:27.586Z,48.60
2018-05-24T00:30:01.969Z,48.60
2018-05-24T00:32:36.404Z,48.30
2018-05-24T00:35:10.887Z,48.50
2018-05-24T00:37:45.332Z,48.20
2018-05-24T00:40:19.702Z,48.30
2018-05-24T00:42:53.965Z,48.10
2018-05-24T00:45:28.398Z,48.00
2018-05-24T00:48:02.831Z,48.10
2018-05-24T00:50:37.459Z,48.30
2018-05-24T00:53:11.883Z,48.40
2018-05-24T00:55:46.344Z,48.60
2018-05-24T00:58:20.831Z,48.60
2018-05-24T01:00:55.227Z,48.90
2018-05-24T01:03:29.675Z,48.50
2018-05-24T01:06:03.964Z,48.60
2018-05-24T01:08:38.429Z,48.50
2018-05-24T01:11:13.529Z,48.70
2018-05-24T01:13:47.859Z,48.70
2018-05-24T01:16:22.314Z,48.60
2018-05-24T01:18:56.816Z,48.40
2018-05-24T01:21:31.324Z,49.20
2018-05-24T01:24:05.896Z,49.20
2018-05-24T01:26:40.493Z,49.40
2018-05-24T01:29:14.880Z,49.30
2018-05-24T01:31:49.294Z,49.40
2018-05-24T01:34:23.944Z,49.60
2018-05-24T01:37:10.057Z,50.00
2018-05-24T01:39:44.417Z,49.50
2018-05-24T01:42:19.693Z,49.90
2018-05-24T01:44:54.125Z,49.90
2018-05-24T01:47:28.397Z,50.20
2018-05-24T01:50:03.706Z,50.40
2018-05-24T01:52:38.934Z,51.00
2018-05-24T01:55:13.393Z,50.30
2018-05-24T01:57:47.656Z,50.40
2018-05-24T02:00:21.957Z,50.40
2018-05-24T02:02:56.356Z,50.50
2018-05-24T02:05:30.845Z,50.60
2018-05-24T02:08:05.234Z,50.70
2018-05-24T02:10:39.659Z,51.10
2018-05-24T02:13:13.994Z,51.10
2018-05-24T02:15:48.379Z,51.60
2018-05-24T02:18:22.711Z,52.10
2018-05-24T02:20:57.147Z,52.20
2018-05-24T02:23:31.565Z,52.10
2018-05-24T02:26:05.953Z,52.70
2018-05-24T02:28:40.973Z,53.30
2018-05-24T02:31:15.330Z,53.30
2018-05-24T02:33:49.773Z,53.50
2018-05-24T02:36:24.075Z,53.70
2018-05-24T02:38:58.523Z,53.40
2018-05-24T02:41:33.574Z,53.50
2018-05-24T02:44:08.158Z,53.40
2018-05-24T02:46:42.558Z,53.60
2018-05-24T02:49:17.041Z,53.50
2018-05-24T02:51:51.631Z,53.80
2018-05-24T02:54:25.994Z,54.10
2018-05-24T02:57:00.305Z,54.00
2018-05-24T02:59:34.702Z,53.60
2018-05-24T03:02:09.196Z,53.10
2018-05-24T03:04:44.217Z,53.40
2018-05-24T03:07:18.744Z,53.40
2018-05-24T03:09:54.027Z,54.10
2018-05-24T03:12:28.383Z,54.10
2018-05-24T03:15:02.752Z,53.90
2018-05-24T03:17:37.867Z,54.50
2018-05-24T03:20:12.270Z,54.40
2018-05-24T03:22:47.405Z,54.80
2018-05-24T03:25:21.754Z,54.70
2018-05-24T03:27:56.277Z,55.00
2018-05-24T03:30:30.571Z,55.30
2018-05-24T03:33:04.930Z,55.40
2018-05-24T03:35:39.280Z,55.50
2018-05-24T03:38:13.739Z,55.60
2018-05-24T03:40:48.773Z,54.70
2018-05-24T03:43:23.191Z,54.70
2018-05-24T03:45:57.587Z,55.00
2018-05-24T03:48:32.152Z,54.50
2018-05-24T03:51:06.525Z,55.00
2018-05-24T03:53:41.245Z,54.80
2018-05-24T03:56:15.521Z,54.40
2018-05-24T03:58:50.647Z,55.20
2018-05-24T04:01:36.818Z,55.20
2018-05-24T04:04:23.869Z,55.20
2018-05-24T04:06:58.168Z,55.20
2018-05-24T04:09:32.522Z,55.40
2018-05-24T04:12:06.925Z,55.10
2018-05-24T04:14:41.325Z,54.90
2018-05-24T04:17:15.971Z,54.30
2018-05-24T04:19:50.235Z,54.00
2018-05-24T04:22:24.690Z,54.20
2018-05-24T04:24:59.019Z,54.00
2018-05-24T04:27:33.288Z,54.00
2018-05-24T04:30:07.625Z,55.10
2018-05-24T04:32:41.945Z,54.70
2018-05-24T04:35:16.241Z,54.90
2018-05-24T04:37:50.606Z,54.60
2018-05-24T04:40:25.144Z,54.50
2018-05-24T04:42:59.464Z,54.50
2018-05-24T04:45:33.795Z,55.10
2018-05-24T04:48:08.072Z,55.10
2018-05-24T04:50:43.118Z,55.40
2018-05-24T04:53:17.559Z,55.40
2018-05-24T04:55:52.082Z,55.60
2018-05-24T04:58:26.396Z,56.20
2018-05-24T05:01:00.925Z,56.20
2018-05-24T05:03:35.393Z,55.80
2018-05-24T05:06:09.945Z,56.50
2018-05-24T05:08:44.456Z,55.90
2018-05-24T05:11:19.686Z,56.90
2018-05-24T05:13:53.985Z,56.80
2018-05-24T05:16:28.274Z,56.60
2018-05-24T05:19:02.757Z,56.20
2018-05-24T05:21:37.321Z,56.80
2018-05-24T05:24:11.747Z,56.40
2018-05-24T05:26:47.294Z,57.00
2018-05-24T05:29:21.674Z,57.60
2018-05-24T05:31:55.984Z,57.50
2018-05-24T05:34:30.541Z,57.10
2018-05-24T05:37:05.070Z,57.30
2018-05-24T05:39:39.384Z,58.20
2018-05-24T05:42:13.673Z,58.40
2018-05-24T05:44:48.204Z,58.30
2018-05-24T05:47:22.436Z,57.80
2018-05-24T05:49:56.821Z,57.50
2018-05-24T05:52:31.238Z,56.90
2018-05-24T05:55:05.617Z,56.20
2018-05-24T05:57:39.924Z,56.70
2018-05-24T06:00:14.453Z,56.80
2018-05-24T06:02:48.933Z,57.50
2018-05-24T06:05:23.388Z,57.70
2018-05-24T06:07:57.689Z,56.80
2018-05-24T06:10:32.207Z,57.20
2018-05-24T06:13:06.654Z,57.50
2018-05-24T06:15:41.165Z,57.40
2018-05-24T06:18:15.489Z,57.70
2018-05-24T06:20:49.770Z,58.10
2018-05-24T06:23:24.232Z,58.30
2018-05-24T06:25:59.478Z,59.00
2018-05-24T06:28:33.903Z,59.00
2018-05-24T06:31:08.270Z,58.90
2018-05-24T06:33:42.516Z,59.10
2018-05-24T06:36:16.968Z,59.90
2018-05-24T06:38:52.881Z,59.50
2018-05-24T06:41:27.250Z,59.50
2018-05-24T06:44:01.532Z,59.80
2018-05-24T06:46:36.217Z,59.10
2018-05-24T06:49:11.296Z,59.30
2018-05-24T06:51:46.385Z,59.30
2018-05-24T06:54:20.840Z,58.90
2018-05-24T06:56:55.177Z,58.60
2018-05-24T06:59:29.595Z,58.10
2018-05-24T07:02:03.971Z,57.60
2018-05-24T07:04:38.316Z,57.50
2018-05-24T07:07:12.739Z,56.90
2018-05-24T07:09:47.112Z,57.80
2018-05-24T07:12:21.496Z,56.80
2018-05-24T07:14:55.920Z,56.30
2018-05-24T07:17:30.219Z,57.90
2018-05-24T07:20:04.631Z,57.20
2018-05-24T07:22:39.035Z,57.50
2018-05-24T07:25:14.087Z,57.60
2018-05-24T07:27:48.533Z,57.50
2018-05-24T07:30:22.836Z,57.50
2018-05-24T07:32:58.829Z,57.70
2018-05-24T07:35:33.197Z,57.70
2018-05-24T07:38:08.252Z,56.60
2018-05-24T07:40:42.664Z,56.60
2018-05-24T07:43:16.928Z,56.60
2018-05-24T07:45:51.316Z,56.30
2018-05-24T07:48:25.648Z,56.00
2018-05-24T07:50:59.937Z,56.50
2018-05-24T07:53:34.256Z,57.30
2018-05-24T07:56:08.564Z,56.80
2018-05-24T07:58:42.964Z,56.20
2018-05-24T08:01:18.009Z,56.20
2018-05-24T08:03:52.322Z,57.10
2018-05-24T08:06:27.369Z,57.60
2018-05-24T08:09:01.912Z,57.50
2018-05-24T08:11:36.460Z,56.90
2018-05-24T08:14:10.873Z,55.90
2018-05-24T08:16:45.168Z,55.20
2018-05-24T08:19:19.562Z,55.00
2018-05-24T08:21:54.006Z,54.50
2018-05-24T08:24:28.349Z,54.90
2018-05-24T08:27:02.792Z,55.20
2018-05-24T08:29:37.096Z,54.60
2018-05-24T08:32:13.004Z,52.20
2018-05-24T08:34:47.337Z,52.20
2018-05-24T08:37:21.810Z,53.40
2018-05-24T08:39:56.112Z,52.30
2018-05-24T08:42:30.517Z,52.70
2018-05-24T08:45:05.009Z,52.50
2018-05-24T08:47:39.457Z,53.30
2018-05-24T08:50:13.939Z,53.00
2018-05-24T08:52:48.497Z,51.90
2018-05-24T08:55:23.759Z,52.30
2018-05-24T08:57:58.407Z,51.90
2018-05-24T09:00:32.727Z,52.50
2018-05-24T09:03:07.109Z,53.50
2018-05-24T09:05:41.588Z,51.50
2018-05-24T09:08:16.777Z,53.40
2018-05-24T09:10:53.036Z,53.60
2018-05-24T09:13:27.561Z,53.20
2018-05-24T09:16:02.794Z,53.30
2018-05-24T09:18:37.244Z,53.30
2018-05-24T09:21:12.316Z,53.30
2018-05-24T09:23:46.749Z,53.30
2018-05-24T09:26:21.301Z,52.70
2018-05-24T09:28:55.685Z,52.50
2018-05-24T09:31:30.145Z,53.00
2018-05-24T09:34:04.594Z,52.00
2018-05-24T09:36:38.999Z,52.70
2018-05-24T09:39:13.381Z,52.30
2018-05-24T09:41:48.161Z,53.40
2018-05-24T09:44:22.677Z,52.60
2018-05-24T09:46:57.446Z,53.30
2018-05-24T09:49:31.803Z,52.80
2018-05-24T09:52:06.312Z,51.90
2018-05-24T09:54:40.620Z,50.80
2018-05-24T09:57:14.868Z,51.90
2018-05-24T09:59:50.925Z,51.20
2018-05-24T10:02:25.861Z,51.10
2018-05-24T10:05:00.276Z,52.10
2018-05-24T10:07:34.554Z,51.80
2018-05-24T10:10:09.014Z,51.90
2018-05-24T10:12:44.139Z,51.80
2018-05-24T10:15:18.422Z,51.80
2018-05-24T10:17:54.308Z,52.40
2018-05-24T10:20:28.633Z,52.30
2018-05-24T10:23:03.065Z,53.10
2018-05-24T10:25:37.447Z,54.10
2018-05-24T10:28:11.889Z,52.90
2018-05-24T10:30:46.345Z,54.30
2018-05-24T10:33:20.854Z,55.60
2018-05-24T10:35:55.481Z,56.00
2018-05-24T10:38:29.887Z,56.30
2018-05-24T10:41:04.195Z,57.20
2018-05-24T10:43:38.643Z,57.90
2018-05-24T10:46:13.068Z,58.60
2018-05-24T10:48:47.492Z,58.30
2018-05-24T10:51:22.078Z,58.40
2018-05-24T10:53:57.139Z,58.70
2018-05-24T10:56:31.562Z,58.70
2018-05-24T10:59:05.964Z,59.10
2018-05-24T11:01:40.405Z,59.40
2018-05-24T11:04:14.813Z,59.90
2018-05-24T11:06:49.125Z,59.10
2018-05-24T11:09:23.449Z,58.10
2018-05-24T11:11:57.778Z,57.30
2018-05-24T11:14:32.180Z,57.10
2018-05-24T11:17:06.517Z,56.50
2018-05-24T11:19:41.039Z,56.60
2018-05-24T11:22:15.336Z,57.00
2018-05-24T11:24:49.778Z,56.30
2018-05-24T11:27:24.170Z,57.20
2018-05-24T11:29:59.227Z,57.50
2018-05-24T11:32:33.537Z,57.50
2018-05-24T11:35:08.076Z,57.90
2018-05-24T11:37:42.524Z,57.40
2018-05-24T11:40:16.868Z,57.50
2018-05-24T11:42:51.333Z,57.50
2018-05-24T11:45:25.889Z,56.50
2018-05-24T11:48:00.271Z,57.30
2018-05-24T11:50:34.683Z,57.10
2018-05-24T11:53:09.029Z,57.50
2018-05-24T11:55:44.259Z,57.80
2018-05-24T11:58:18.583Z,57.80
2018-05-24T12:00:54.413Z,58.70
2018-05-24T12:03:29.452Z,58.90
2018-05-24T12:06:03.803Z,58.90
2018-05-24T12:08:38.245Z,59.50
2018-05-24T12:11:13.339Z,59.40
2018-05-24T12:13:47.817Z,59.40
2018-05-24T12:16:22.487Z,58.50
2018-05-24T12:18:56.890Z,59.10
2018-05-24T12:21:31.196Z,59.90
2018-05-24T12:24:05.853Z,60.10
2018-05-24T12:26:40.242Z,60.20
2018-05-24T12:29:14.656Z,60.80
2018-05-24T12:31:49.016Z,61.60
2018-05-24T12:34:24.257Z,62.10
2018-05-24T12:36:58.750Z,62.00
2018-05-24T12:39:33.069Z,60.90
2018-05-24T12:42:08.371Z,60.20
2018-05-24T12:44:42.756Z,60.20
2018-05-24T12:47:17.091Z,60.90
2018-05-24T12:49:51.376Z,59.50
2018-05-24T12:52:25.806Z,60.60
2018-05-24T12:55:00.836Z,63.10
2018-05-24T12:57:35.377Z,63.10
2018-05-24T13:00:11.309Z,66.20
2018-05-24T13:02:45.621Z,66.20
2018-05-24T13:05:21.393Z,67.10
2018-05-24T13:07:55.674Z,67.20
2018-05-24T13:10:30.038Z,68.20
2018-05-24T13:13:04.461Z,67.40
2018-05-24T13:15:38.893Z,67.20
2018-05-24T13:18:13.307Z,66.20
2018-05-24T13:20:47.728Z,66.50
2018-05-24T13:23:22.741Z,65.80
2018-05-24T13:25:57.393Z,65.80
2018-05-24T13:28:31.849Z,65.20
2018-05-24T13:31:06.157Z,65.20
2018-05-24T13:33:40.568Z,65.70
2018-05-24T13:36:14.886Z,65.30
2018-05-24T13:38:49.340Z,66.20
2018-05-24T13:41:23.934Z,66.80
2018-05-24T13:43:58.228Z,66.80
2018-05-24T13:46:33.618Z,67.60
2018-05-24T13:49:08.023Z,67.90
2018-05-24T13:51:42.446Z,68.00
2018-05-24T13:54:16.706Z,68.70
2018-05-24T13:56:51.133Z,69.20
2018-05-24T13:59:26.168Z,70.30
2018-05-24T14:02:00.464Z,70.30
2018-05-24T14:04:34.987Z,71.10
2018-05-24T14:07:09.360Z,71.80
2018-05-24T14:09:43.785Z,70.90
2018-05-24T14:12:18.203Z,71.60
2018-05-24T14:14:52.651Z,71.90
2018-05-24T14:17:27.873Z,72.70
2018-05-24T14:20:03.000Z,72.40
2018-05-24T14:22:37.308Z,72.40
2018-05-24T14:25:11.737Z,73.10
2018-05-24T14:27:46.654Z,73.70
2018-05-24T14:30:21.293Z,73.20
2018-05-24T14:32:55.804Z,73.90
2018-05-24T14:35:30.320Z,74.20
2018-05-24T14:38:04.572Z,73.90
2018-05-24T14:40:38.948Z,74.70
2018-05-24T14:43:13.482Z,74.70
2018-05-24T14:45:47.938Z,75.10
2018-05-24T14:48:23.065Z,75.00
2018-05-24T14:50:57.349Z,75.00
2018-05-24T14:53:31.719Z,75.90
2018-05-24T14:56:06.230Z,76.60
2018-05-24T14:58:40.532Z,77.50
2018-05-24T15:01:15.160Z,77.90
2018-05-24T15:03:50.385Z,77.50
2018-05-24T15:06:24.696Z,77.50
2018-05-24T15:08:59.261Z,77.80
2018-05-24T15:11:33.642Z,77.70
2018-05-24T15:14:08.078Z,77.00
2018-05-24T15:16:42.478Z,77.10
2018-05-24T15:19:16.803Z,77.40
2018-05-24T15:21:51.544Z,78.50
2018-05-24T15:24:25.972Z,79.00
2018-05-24T15:27:01.197Z,79.00
2018-05-24T15:29:35.835Z,79.00
2018-05-24T15:32:10.217Z,79.30
2018-05-24T15:34:45.192Z,79.70
2018-05-24T15:37:19.684Z,79.80
2018-05-24T15:42:49.644Z,78.00
2018-05-24T15:45:24.015Z,77.50
2018-05-24T15:47:58.492Z,77.60
2018-05-24T15:50:32.998Z,77.90
2018-05-24T15:53:07.427Z,76.90
2018-05-24T15:55:41.857Z,76.60
2018-05-24T15:58:16.306Z,76.30
2018-05-24T16:00:51.385Z,75.70
2018-05-24T16:03:26.541Z,75.50
2018-05-24T16:06:03.837Z,75.90
2018-05-24T16:08:38.331Z,76.30
2018-05-24T16:11:12.854Z,75.70
2018-05-24T16:13:47.269Z,75.50
2018-05-24T16:16:21.816Z,75.90
2018-05-24T16:18:56.339Z,75.90
2018-05-24T16:21:30.764Z,75.90
2018-05-24T16:24:05.016Z,76.30
2018-05-24T16:26:39.502Z,75.20
2018-05-24T16:29:14.025Z,74.60
2018-05-24T16:31:48.480Z,73.10
2018-05-24T16:34:22.930Z,72.20
2018-05-24T16:36:59.634Z,73.20
2018-05-24T16:39:34.015Z,73.20
2018-05-24T16:42:08.444Z,72.00
2018-05-24T16:44:43.052Z,70.80
2018-05-24T16:47:17.470Z,71.10
2018-05-24T16:49:51.889Z,71.40
2018-05-24T16:52:26.148Z,71.70
2018-05-24T16:55:00.497Z,70.30
2018-05-24T16:57:34.829Z,70.70
2018-05-24T17:00:09.161Z,70.70
2018-05-24T17:02:43.569Z,71.70
2018-05-24T17:05:17.884Z,69.30
2018-05-24T17:07:52.225Z,69.40
2018-05-24T17:10:27.477Z,70.60
2018-05-24T17:13:02.742Z,70.80
2018-05-24T17:15:37.152Z,70.80
2018-05-24T17:18:11.692Z,71.20
2018-05-24T17:20:46.232Z,71.10
2018-05-24T17:23:20.677Z,71.80
2018-05-24T17:25:55.886Z,71.90
2018-05-24T17:28:30.317Z,71.90
2018-05-24T17:31:05.448Z,70.70
2018-05-24T17:33:39.769Z,70.60
2018-05-24T17:36:14.240Z,69.90
2018-05-24T17:38:48.625Z,70.60
2018-05-24T17:41:23.142Z,70.90
2018-05-24T17:43:57.664Z,70.70
2018-05-24T17:46:32.184Z,70.40
2018-05-24T17:49:06.517Z,70.60
2018-05-24T17:51:40.799Z,69.60
2018-05-24T17:54:15.134Z,70.50
2018-05-24T17:56:49.469Z,71.00
2018-05-24T17:59:23.868Z,69.70
2018-05-24T18:01:58.170Z,69.60
2018-05-24T18:04:33.356Z,71.80
2018-05-24T18:07:07.728Z,71.20
2018-05-24T18:09:42.162Z,69.90
2018-05-24T18:12:16.464Z,70.00
2018-05-24T18:14:50.882Z,70.30
2018-05-24T18:17:25.170Z,71.10
2018-05-24T18:20:00.344Z,71.40
2018-05-24T18:22:34.694Z,71.30
2018-05-24T18:25:10.614Z,72.20
2018-05-24T18:27:45.161Z,72.10
2018-05-24T18:30:19.473Z,73.00
2018-05-24T18:32:54.187Z,73.30
2018-05-24T18:35:28.832Z,73.30
2018-05-24T18:38:03.249Z,73.80
2018-05-24T18:40:37.631Z,74.20
2018-05-24T18:43:12.104Z,74.20
2018-05-24T18:45:46.587Z,74.40
2018-05-24T18:48:20.941Z,74.40
2018-05-24T18:50:55.364Z,74.70
2018-05-24T18:53:30.489Z,73.60
2018-05-24T18:56:04.951Z,73.60
2018-05-24T18:58:39.208Z,71.10
2018-05-24T19:01:13.934Z,70.10
2018-05-24T19:03:48.236Z,70.70
2018-05-24T19:06:22.679Z,69.90
2018-05-24T19:08:57.134Z,70.00
2018-05-24T19:11:31.582Z,68.00
2018-05-24T19:14:05.873Z,69.40
2018-05-24T19:16:40.503Z,68.80
2018-05-24T19:19:14.744Z,68.10
2018-05-24T19:21:49.193Z,68.70
2018-05-24T19:24:23.538Z,69.80
2018-05-24T19:26:57.969Z,70.60
2018-05-24T19:29:32.234Z,70.40
2018-05-24T19:32:06.704Z,70.30
2018-05-24T19:34:40.994Z,70.70
2018-05-24T19:37:15.241Z,67.40
2018-05-24T19:39:49.572Z,67.40
2018-05-24T19:42:24.183Z,66.20
2018-05-24T19:44:58.518Z,67.20
2018-05-24T19:47:32.908Z,67.80
2018-05-24T19:50:07.277Z,67.50
2018-05-24T19:52:41.635Z,65.90
2018-05-24T19:55:16.064Z,66.30
2018-05-24T19:57:50.414Z,67.40
2018-05-24T20:00:24.924Z,67.90
2018-05-24T20:02:59.430Z,67.70
2018-05-24T20:05:33.739Z,68.30
2018-05-24T20:08:08.788Z,67.80
2018-05-24T20:10:43.518Z,67.70
2018-05-24T20:13:17.943Z,67.90
2018-05-24T20:15:52.275Z,69.60
2018-05-24T20:18:26.705Z,68.40
2018-05-24T20:21:01.090Z,68.40
2018-05-24T20:23:36.364Z,70.00
2018-05-24T20:26:10.871Z,68.40
2018-05-24T20:28:45.164Z,68.40
2018-05-24T20:31:19.423Z,68.40
2018-05-24T20:33:53.764Z,67.70
2018-05-24T20:36:28.262Z,70.20
2018-05-24T20:39:02.774Z,71.70
2018-05-24T20:41:37.049Z,74.90
2018-05-24T20:44:12.253Z,78.10
2018-05-24T20:46:46.606Z,78.10
2018-05-24T20:49:20.911Z,78.40
2018-05-24T20:51:59.042Z,80.40
2018-05-24T20:54:34.753Z,80.30
2018-05-24T20:57:09.203Z,79.30
2018-05-24T20:59:43.880Z,79.50
2018-05-24T21:02:18.189Z,79.50
2018-05-24T21:04:52.504Z,80.20
2018-05-24T21:07:27.274Z,78.80
2018-05-24T21:10:01.753Z,79.50
2018-05-24T21:12:36.245Z,80.70
2018-05-24T21:15:10.699Z,79.30
2018-05-24T21:17:45.563Z,83.30
2018-05-24T21:20:20.116Z,85.50
2018-05-24T21:22:54.561Z,87.20
2018-05-24T21:25:29.201Z,88.40
2018-05-24T21:28:03.692Z,89.70
2018-05-24T21:30:38.263Z,90.20
2018-05-24T21:33:12.787Z,89.90
2018-05-24T21:35:47.340Z,88.00
2018-05-24T21:38:21.710Z,87.70
2018-05-24T21:40:56.275Z,90.20
2018-05-24T21:43:30.773Z,90.30
2018-05-24T21:46:05.172Z,90.80
2018-05-24T21:48:39.530Z,91.30
2018-05-24T21:51:13.917Z,91.40
2018-05-24T21:53:48.345Z,91.50
2018-05-24T21:56:22.679Z,91.80
2018-05-24T21:58:57.070Z,91.60
2018-05-24T22:01:31.349Z,92.20
2018-05-24T22:04:05.682Z,92.00
2018-05-24T22:06:40.105Z,91.90
2018-05-24T22:09:14.421Z,91.90
2018-05-24T22:11:48.674Z,91.40
2018-05-24T22:14:23.040Z,91.30
2018-05-24T22:16:57.373Z,91.70
2018-05-24T22:19:31.705Z,91.60
2018-05-24T22:22:06.088Z,91.80
2018-05-24T22:24:41.272Z,92.00
2018-05-24T22:27:15.624Z,92.00
2018-05-24T22:29:49.946Z,91.90
2018-05-24T22:32:24.300Z,91.70
2018-05-24T22:34:58.721Z,91.90
2018-05-24T22:37:33.062Z,92.20
2018-05-24T22:40:08.226Z,92.30
2018-05-24T22:42:42.704Z,92.20
2018-05-24T22:45:17.016Z,92.20
2018-05-24T22:47:51.449Z,91.90
2018-05-24T22:50:25.908Z,91.80
2018-05-24T22:53:00.233Z,91.70
2018-05-24T22:55:34.641Z,91.70
2018-05-24T22:58:09.166Z,91.70
2018-05-24T23:00:43.488Z,91.90
2018-05-24T23:03:18.097Z,91.90
2018-05-24T23:05:52.542Z,92.20
2018-05-24T23:08:27.032Z,92.10
2018-05-24T23:11:01.481Z,92.20
2018-05-24T23:13:35.899Z,91.80
2018-05-24T23:16:10.292Z,91.50
2018-05-24T23:18:44.833Z,91.40
2018-05-24T23:21:19.277Z,91.20
2018-05-24T23:23:53.725Z,90.90
2018-05-24T23:26:28.050Z,90.90
2018-05-24T23:29:02.526Z,91.20
2018-05-24T23:31:36.933Z,90.80
2018-05-24T23:34:11.465Z,91.00
2018-05-24T23:36:45.903Z,90.70
2018-05-24T23:39:20.412Z,90.60
2018-05-24T23:41:54.876Z,90.80
2018-05-24T23:44:29.274Z,90.90
2018-05-24T23:47:03.616Z,90.80
2018-05-24T23:49:37.901Z,90.70
2018-05-24T23:52:12.290Z,91.00
2018-05-24T23:54:46.693Z,90.80
2018-05-24T23:57:21.056Z,91.20
2018-05-24T23:59:55.672Z,90.10
